Home > Products > Valid Products > MTR

000
SAUS44 KLIX 231852
MTRBVE
METAR KBVE 231851Z AUTO 22017G24KT 9SM CLR 20/18 A2971 RMK AO2 PK
WND 21026/1752 SLP059 T02000178





000
SAUS44 KLIX 231820
MTRBVE
SPECI KBVE 231818Z AUTO 22017G24KT 9SM SCT019 18/17 A2971 RMK AO2 PK
WND 21026/1752 T01830167





000
SAUS44 KLIX 231806
MTRBVE
SPECI KBVE 231804Z AUTO 21018G25KT 8SM BKN019 18/17 A2972 RMK AO2 PK
WND 21026/1752 PRESFR T01830167





000
SAUS44 KLIX 231752
MTRBVE
METAR KBVE 231751Z AUTO 21017G26KT 9SM FEW019 SCT110 18/17 A2975 RMK
AO2 PK WND 21026/1749 RAE40 SLP073 P0007 60029 T01780167 10206 20161
56019





000
SAUS44 KLIX 231652
MTRBVE
METAR KBVE 231651Z AUTO 19011KT 3SM -RA BR FEW065 BKN090 OVC110
17/17 A2976 RMK AO2 SLP076 P0009 T01670167





000
SAUS44 KLIX 231552
MTRBVE
METAR KBVE 231551Z AUTO 21012KT 8SM -RA SCT070 BKN095 OVC110 17/16
A2979 RMK AO2 SLP089 P0006 T01720161





000
SAUS44 KLIX 231552
MTRBVE
METAR KBVE 231551Z AUTO 21012KT 8SM -RA SCT070 BKN095 OVC110 17/16
A2979 RMK AO2 SLP089 P0006 T01720161





000
SAUS44 KLIX 231452
MTRBVE
METAR KBVE 231451Z AUTO 23009KT 8SM -RA FEW050 OVC070 17/17 A2980
RMK AO2 SLP092 P0002 60007 T01670167 53018





000
SAUS44 KLIX 231352
MTRBVE
METAR KBVE 231351Z AUTO 26015G27KT 7SM -RA BKN049 OVC060 17/16 A2980
RMK AO2 PK WND 23033/1304 WSHFT 1255 RAB06 SLP091 P0005 T01670161





000
SAUS44 KLIX 231319
MTRBVE
SPECI KBVE 231318Z AUTO 25014G22KT 3SM -RA BR SCT037 BKN046 OVC110
17/17 A2980 RMK AO2 PK WND 23033/1304 WSHFT 1255 RAB06 P0005
T01670167





000
SAUS44 KLIX 231315 COR
MTRBVE
SPECI KBVE 231309Z AUTO 24016G33KT 1 3/4SM +RA BR FEW011 BKN060
OVC110 17/17 A2980 RMK AO2 PK WND 23033/1304 WSHFT 1255 RAB06 PRESRR
P0003 T01720172





000
SAUS44 KLIX 231313 COR
MTRBVE
SPECI KBVE 231309Z AUTO 24016G33KT 1 3/4SM +RA BR FEW011 BKN060
OVC110 17/17 A2980 RMK AO2 PK WND 23033/1304 WSHFT 1255 RAB06 PRESRR
P0003 T01720172





000
SAUS44 KLIX 231311 COR
MTRBVE
SPECI KBVE 231309Z AUTO 24016G33KT 1 3/4SM +RA BR FEW011 BKN060
OVC110 17/17 A2980 RMK AO2 PK WND 23033/1304 WSHFT 1255 RAB06 PRESRR
P0003 T01720172





000
SAUS44 KLIX 231252
MTRBVE
METAR KBVE 231251Z AUTO 16011KT 8SM FEW016 SCT043 OVC110 20/20 A2975
RMK AO2 SLP074 T02000200





000
SAUS44 KLIX 231228
MTRBVE
SPECI KBVE 231227Z AUTO 17009KT 10SM FEW010 BKN029 OVC041 19/19
A2976 RMK AO2 T01940194





000
SAUS44 KLIX 231153
MTRBVE
METAR KBVE 231151Z AUTO 13008KT 10SM BKN033 OVC045 20/20 A2972 RMK
AO2 RAB15E25 SLP065 P0000 60000 T02000200 10200 20178 56019





000
SAUS44 KLIX 231103
MTRBVE
SPECI KBVE 231102Z AUTO 12007KT 8SM SCT002 19/19 A2972 RMK AO2
T01890189





000
SAUS44 KLIX 231052
MTRBVE
METAR KBVE 231051Z AUTO 13005KT 5SM BR BKN002 19/19 A2973 RMK AO2
SLP066 T01890189





000
SAUS44 KLIX 231044
MTRBVE
SPECI KBVE 231043Z AUTO 13005KT 2SM BR OVC002 19/19 A2973 RMK AO2
T01890189





000
SAUS44 KLIX 231030
MTRBVE
SPECI KBVE 231029Z AUTO 12005KT 1SM BR VV002 19/19 A2973 RMK AO2
T01890189





000
SAUS44 KLIX 231030
MTRBVE
SPECI KBVE 231029Z AUTO 12005KT 1SM BR VV002 19/19 A2973 RMK AO2
T01890189





000
SAUS44 KLIX 231021
MTRBVE
SPECI KBVE 231020Z AUTO 12006KT 2 1/2SM BR BKN003 19/19 A2974 RMK
AO2 T01890189





000
SAUS44 KLIX 231008
MTRBVE
SPECI KBVE 231007Z AUTO 12006KT 7SM FEW007 SCT120 19/19 A2974 RMK
AO2 PRESFR T01890189





000
SAUS44 KLIX 230952
MTRBVE
METAR KBVE 230951Z AUTO 12004KT 8SM BKN007 BKN012 BKN120 19/19 A2976
RMK AO2 CIG 004V010 SLP078 T01890189





000
SAUS44 KLIX 230952
MTRBVE
METAR KBVE 230951Z AUTO 12004KT 8SM BKN007 BKN012 BKN120 19/19 A2976
RMK AO2 CIG 004V010 SLP078 T01890189





000
SAUS44 KLIX 230943
MTRBVE
SPECI KBVE 230942Z AUTO 10004KT 9SM BKN007 BKN013 BKN120 19/19 A2977
RMK AO2 T01940194





000
SAUS44 KLIX 230943
MTRBVE
SPECI KBVE 230942Z AUTO 10004KT 9SM BKN007 BKN013 BKN120 19/19 A2977
RMK AO2 T01940194





000
SAUS44 KLIX 230935
MTRBVE
SPECI KBVE 230934Z AUTO 12004KT 9SM SCT009 BKN013 BKN120 19/19 A2978
RMK AO2 T01940194





000
SAUS44 KLIX 230852
MTRBVE
METAR KBVE 230851Z AUTO 12005KT 7SM CLR 18/18 A2978 RMK AO2 SLP084
T01830183 58026





000
SAUS44 KLIX 230823
MTRBVE
SPECI KBVE 230822Z AUTO 11007KT 8SM SCT019 18/18 A2979 RMK AO2
T01830183





000
SAUS44 KLIX 230752
MTRBVE
METAR KBVE 230751Z AUTO 11005KT 9SM FEW012 OVC019 18/18 A2982 RMK
AO2 SLP098 T01830183





000
SAUS44 KLIX 230652
MTRBVE
METAR KBVE 230651Z AUTO 09007KT 10SM FEW011 BKN020 BKN120 18/18
A2985 RMK AO2 SLP106 T01830183





000
SAUS44 KLIX 230552
MTRBVE
METAR KBVE 230551Z AUTO 10010KT 10SM FEW011 18/18 A2986 RMK AO2
SLP110 60000 T01830183 10189 20167 402110144 58044





000
SAUS44 KLIX 230523
MTRBVE
SPECI KBVE 230522Z AUTO 10008KT 10SM SCT013 18/18 A2988 RMK AO2
T01830183





000
SAUS44 KLIX 230514
MTRBVE
SPECI KBVE 230513Z AUTO 10010KT 9SM BKN013 18/18 A2989 RMK AO2
PRESFR T01780178





000
SAUS44 KLIX 230508
MTRBVE
SPECI KBVE 230506Z AUTO 10008KT 8SM SCT013 BKN021 18/18 A2991 RMK
AO2 T01780178





000
SAUS44 KLIX 230452
MTRBVE
METAR KBVE 230451Z AUTO 09007KT 8SM SCT019 SCT085 BKN110 18/18 A2992
RMK AO2 RAB26E39 SLP131 P0000 T01780178





000
SAUS44 KLIX 230441 COR
MTRBVE
SPECI KBVE 230436Z AUTO 09008KT 9SM -RA FEW017 SCT085 BKN110 18/18
A2993 RMK AO2 RAB26 P0000 T01780178





000
SAUS44 KLIX 230441 COR
MTRBVE
SPECI KBVE 230436Z AUTO 09008KT 9SM -RA FEW017 SCT085 BKN110 18/18
A2993 RMK AO2 RAB26 P0000 T01780178





000
SAUS44 KLIX 230440 COR
MTRBVE
SPECI KBVE 230436Z AUTO 09008KT 9SM -RA FEW017 SCT085 BKN110 18/18
A2993 RMK AO2 RAB26 P0000 T01780178





000
SAUS44 KLIX 230440 COR
MTRBVE
SPECI KBVE 230436Z AUTO 09008KT 9SM -RA FEW017 SCT085 BKN110 18/18
A2993 RMK AO2 RAB26 P0000 T01780178





000
SAUS44 KLIX 230353
MTRBVE
METAR KBVE 230351Z AUTO 08007KT 9SM BKN016 OVC027 18/18 A2996 RMK
AO2 CIG 012V023 SLP143 T01780178





000
SAUS44 KLIX 230341
MTRBVE
SPECI KBVE 230340Z AUTO 08008KT 8SM SCT015 BKN027 OVC040 17/17 A2996
RMK AO2 T01720172





000
SAUS44 KLIX 230341
MTRBVE
SPECI KBVE 230340Z AUTO 08008KT 8SM SCT015 BKN027 OVC040 17/17 A2996
RMK AO2 T01720172





000
SAUS44 KLIX 230327
MTRBVE
SPECI KBVE 230326Z AUTO 08008KT 7SM FEW011 SCT031 BKN038 17/17 A2996
RMK AO2 T01720172





000
SAUS44 KLIX 230318
MTRBVE
SPECI KBVE 230316Z AUTO 07008KT 7SM FEW011 BKN029 BKN040 17/17 A2996
RMK AO2 T01670167





000
SAUS44 KLIX 230310
MTRBVE
SPECI KBVE 230309Z AUTO 07007KT 7SM SCT013 SCT019 BKN038 17/17 A2997
RMK AO2 T01670167





000
SAUS44 KLIX 230252
MTRBVE
METAR KBVE 230251Z AUTO 06008KT 7SM BKN013 OVC018 17/17 A2999 RMK
AO2 SLP154 60000 T01670167 55014





000
SAUS44 KLIX 230159
MTRBVE
SPECI KBVE 230158Z AUTO 06003KT 10SM BKN014 18/18 A2998 RMK AO2
T01830178





000
SAUS44 KLIX 230152
MTRBVE
METAR KBVE 230151Z AUTO 06005KT 10SM SCT015 18/18 A2998 RMK AO2
RAE33 SLP150 P0000 T01830178





000
SAUS44 KLIX 230137
MTRBVE
SPECI KBVE 230136Z AUTO 09008KT 10SM SCT015 18/18 A2997 RMK AO2
RAE33 P0000 T01830183





000
SAUS44 KLIX 230126
MTRBVE
SPECI KBVE 230125Z AUTO 09007KT 10SM -RA BKN015 19/18 A2999 RMK AO2
P0000 T01890183





000
SAUS44 KLIX 230112
MTRBVE
SPECI KBVE 230111Z AUTO 09008KT 10SM -RA BKN013 19/18 A2999 RMK AO2
P0000 T01890183





000
SAUS44 KLIX 230052
MTRBVE
METAR KBVE 230051Z AUTO 10008KT 10SM -RA FEW012 SCT018 19/18 A3000
RMK AO2 RAB30 SLP157 P0000 T01890183





000
SAUS44 KLIX 230044
MTRBVE
SPECI KBVE 230042Z AUTO 10009KT 10SM -RA FEW013 BKN019 BKN070 19/18
A2999 RMK AO2 RAB30 PRESFR P0000 T01890183





000
SAUS44 KLIX 222352
MTRBVE
METAR KBVE 222351Z AUTO 10005KT 10SM SCT010 BKN013 OVC120 19/19
A3003 RMK AO2 SLP168 T01890189 10206 20189 58007





000
SAUS44 KLIX 222331
MTRBVE
SPECI KBVE 222330Z AUTO 10008KT 10SM BKN011 BKN110 19/18 A3003 RMK
AO2 T01890183





000
SAUS44 KLIX 222252
MTRBVE
METAR KBVE 222251Z AUTO 09008KT 10SM CLR 19/18 A3003 RMK AO2 SLP169
T01890183





000
SAUS44 KLIX 222152
MTRBVE
METAR KBVE 222151Z AUTO 09007KT 8SM CLR 19/18 A3006 RMK AO2 SLP177
T01890178





000
SAUS44 KLIX 222152
MTRBVE
METAR KBVE 222151Z AUTO 09007KT 8SM CLR 19/18 A3006 RMK AO2 SLP177
T01890178





000
SAUS44 KLIX 222052
MTRBVE
METAR KBVE 222051Z AUTO 09009KT 9SM CLR 19/18 A3005 RMK AO2 SLP175
T01940178 56035





000
SAUS44 KLIX 221952
MTRBVE
METAR KBVE 221951Z AUTO 09009KT 10SM CLR 19/17 A3006 RMK AO2 SLP177
T01940172





000
SAUS44 KLIX 221852
MTRBVE
METAR KBVE 221851Z AUTO 08009KT 10SM FEW030 19/17 A3010 RMK AO2
SLP194 T01940172





000
SAUS44 KLIX 221815
MTRBVE
SPECI KBVE 221814Z AUTO 08013KT 10SM SCT027 20/17 A3014 RMK AO2
T02000172





000
SAUS44 KLIX 221752
MTRBVE
METAR KBVE 221751Z AUTO 09011KT 10SM BKN026 BKN035 21/17 A3015 RMK
AO2 SLP210 T02060172 10211 20150 58019





000
SAUS44 KLIX 221742
MTRBVE
SPECI KBVE 221741Z AUTO 09012KT 10SM BKN028 20/17 A3016 RMK AO2
T02000172





000
SAUS44 KLIX 221718
MTRBVE
SPECI KBVE 221717Z AUTO 08012KT 10SM SCT028 BKN055 21/18 A3018 RMK
AO2 T02060178





000
SAUS44 KLIX 221653
MTRBVE
METAR KBVE 221651Z AUTO 09010KT 10SM BKN027 OVC032 21/18 A3020 RMK
AO2 SLP225 T02060178





000
SAUS44 KLIX 221617
MTRBVE
SPECI KBVE 221616Z AUTO 09009KT 9SM BKN028 20/17 A3021 RMK AO2
T02000172





000
SAUS44 KLIX 221553
MTRBVE
METAR KBVE 221551Z AUTO 08008KT 9SM CLR 19/17 A3021 RMK AO2 SLP229
T01940172





000
SAUS44 KLIX 221553
MTRBVE
METAR KBVE 221551Z AUTO 08008KT 9SM CLR 19/17 A3021 RMK AO2 SLP229
T01940172





000
SAUS44 KLIX 221534
MTRBVE
SPECI KBVE 221533Z AUTO 08009KT 9SM FEW030 19/17 A3021 RMK AO2
T01940172





000
SAUS44 KLIX 221508
MTRBVE
SPECI KBVE 221507Z AUTO 07009KT 9SM BKN029 19/17 A3021 RMK AO2
T01940167





000
SAUS44 KLIX 221452
MTRBVE
METAR KBVE 221451Z AUTO 08007KT 10SM FEW031 19/17 A3021 RMK AO2
SLP230 T01940167 52005





000
SAUS44 KLIX 221352
MTRBVE
METAR KBVE 221351Z AUTO 08006KT 10SM CLR 18/16 A3021 RMK AO2 SLP229
T01830156





000
SAUS44 KLIX 221252
MTRBVE
METAR KBVE 221251Z AUTO 08005KT 10SM CLR 16/14 A3020 RMK AO2 SLP225
T01610144





000
SAUS44 KLIX 221154
MTRBVE
METAR KBVE 221151Z AUTO 07004KT 10SM CLR 15/14 A3020 RMK AO2 SLP225
T01500139 10167 20144 56004





000
SAUS44 KLIX 221052
MTRBVE
METAR KBVE 221051Z AUTO 05003KT 10SM CLR 16/14 A3020 RMK AO2 SLP225
T01560139





000
SAUS44 KLIX 220952
MTRBVE
METAR KBVE 220951Z AUTO 09003KT 10SM CLR 16/14 A3020 RMK AO2 SLP225
T01610139





000
SAUS44 KLIX 220852
MTRBVE
METAR KBVE 220851Z AUTO 09004KT 10SM CLR 16/14 A3021 RMK AO2 SLP229
T01560139 56008





000
SAUS44 KLIX 220752
MTRBVE
METAR KBVE 220751Z AUTO 08005KT 10SM CLR 16/14 A3022 RMK AO2 SLP231
T01610139





000
SAUS44 KLIX 220652
MTRBVE
METAR KBVE 220651Z AUTO 09005KT 10SM CLR 16/13 A3022 RMK AO2 SLP234
T01610133





000
SAUS44 KLIX 220552
MTRBVE
METAR KBVE 220551Z AUTO 09007KT 10SM CLR 17/13 A3023 RMK AO2 SLP237
T01670133 10167 20161 402060106 58009





000
SAUS44 KLIX 220452
MTRBVE
METAR KBVE 220451Z AUTO 09007KT 10SM CLR 17/13 A3025 RMK AO2 SLP243
T01670133





000
SAUS44 KLIX 220352
MTRBVE
METAR KBVE 220351Z AUTO 09008KT 10SM CLR 17/13 A3025 RMK AO2 SLP243
T01670128





000
SAUS44 KLIX 220252
MTRBVE
METAR KBVE 220251Z AUTO 08008KT 10SM CLR 17/12 A3026 RMK AO2 SLP246
T01670122 50000





000
SAUS44 KLIX 220152
MTRBVE
METAR KBVE 220151Z AUTO 09007KT 10SM CLR 17/11 A3026 RMK AO2 SLP247
T01670111





000
SAUS44 KLIX 220052
MTRBVE
METAR KBVE 220051Z AUTO 08008KT 10SM CLR 17/12 A3026 RMK AO2 SLP247
T01670117





000
SAUS44 KLIX 212352
MTRBVE
METAR KBVE 212351Z AUTO 08008KT 10SM CLR 17/11 A3026 RMK AO2 SLP246
T01670111 10206 20167 51008





000
SAUS44 KLIX 212252
MTRBVE
METAR KBVE 212251Z AUTO 09009KT 10SM CLR 18/11 A3026 RMK AO2 SLP245
T01780111





000
SAUS44 KLIX 212152
MTRBVE
METAR KBVE 212151Z AUTO 09012KT 10SM CLR 19/11 A3025 RMK AO2 SLP242
T01890111





000
SAUS44 KLIX 212152
MTRBVE
METAR KBVE 212151Z AUTO 09012KT 10SM CLR 19/11 A3025 RMK AO2 SLP242
T01890111





000
SAUS44 KLIX 212052
MTRBVE
METAR KBVE 212051Z AUTO 09012KT 10SM CLR 20/10 A3023 RMK AO2 SLP237
T02000100 56017





000
SAUS44 KLIX 211952
MTRBVE
METAR KBVE 211951Z AUTO 08013KT 10SM CLR 20/10 A3024 RMK AO2 SLP239
T02000100





000
SAUS44 KLIX 211852
MTRBVE
METAR KBVE 211851Z AUTO 10011G17KT 10SM FEW041 20/11 A3026 RMK AO2
SLP247 T02000106





000
SAUS44 KLIX 211752
MTRBVE
METAR KBVE 211751Z AUTO 10011G20KT 10SM CLR 20/10 A3028 RMK AO2
SLP254 T02000100 10200 20128 58010





000
SAUS44 KLIX 211652
MTRBVE
METAR KBVE 211651Z AUTO 09012KT 10SM CLR 19/10 A3031 RMK AO2 SLP262
T01940100





000
SAUS44 KLIX 211552
MTRBVE
METAR KBVE 211551Z AUTO 09009KT 10SM CLR 19/11 A3031 RMK AO2 SLP265
T01890106





000
SAUS44 KLIX 211552
MTRBVE
METAR KBVE 211551Z AUTO 09009KT 10SM CLR 19/11 A3031 RMK AO2 SLP265
T01890106





000
SAUS44 KLIX 211452
MTRBVE
METAR KBVE 211451Z AUTO 09006KT 10SM CLR 17/11 A3031 RMK AO2 SLP264
T01720111 51017





000
SAUS44 KLIX 211352
MTRBVE
METAR KBVE 211351Z AUTO 08003KT 10SM CLR 15/11 A3030 RMK AO2 SLP260
T01500111





000
SAUS44 KLIX 211252
MTRBVE
METAR KBVE 211251Z AUTO 09004KT 10SM CLR 13/11 A3028 RMK AO2 SLP253
T01280106





000
SAUS44 KLIX 211156
MTRBVE
METAR KBVE 211151Z AUTO 08004KT 10SM CLR 13/11 A3026 RMK AO2 SLP247
T01280106 10128 20106 53004





000
SAUS44 KLIX 211052
MTRBVE
METAR KBVE 211051Z AUTO 08005KT 10SM CLR 13/11 A3024 RMK AO2 SLP241
T01280111





000
SAUS44 KLIX 210952
MTRBVE
METAR KBVE 210951Z AUTO 11004KT 10SM CLR 12/10 A3025 RMK AO2 SLP242
T01220100





000
SAUS44 KLIX 210852
MTRBVE
METAR KBVE 210851Z AUTO 09003KT 10SM CLR 12/10 A3025 RMK AO2 SLP244
T01170100 50001





000
SAUS44 KLIX 210752
MTRBVE
METAR KBVE 210751Z AUTO 00000KT 10SM CLR 11/09 A3026 RMK AO2 SLP245
T01110089





000
SAUS44 KLIX 210652
MTRBVE
METAR KBVE 210651Z AUTO 12004KT 10SM CLR 13/10 A3025 RMK AO2 SLP242
T01280100





000
SAUS44 KLIX 210552
MTRBVE
METAR KBVE 210551Z AUTO 12003KT 10SM CLR 13/09 A3025 RMK AO2 SLP242
T01280094 10144 20128 401940106 58005





000
SAUS44 KLIX 210452
MTRBVE
METAR KBVE 210451Z AUTO 13004KT 10SM CLR 13/09 A3026 RMK AO2 SLP246
T01330089





000
SAUS44 KLIX 210352
MTRBVE
METAR KBVE 210351Z AUTO 11005KT 10SM CLR 13/09 A3026 RMK AO2 SLP246
T01330094





000
SAUS44 KLIX 210352
MTRBVE
METAR KBVE 210351Z AUTO 11005KT 10SM CLR 13/09 A3026 RMK AO2 SLP246
T01330094





000
SAUS44 KLIX 210252
MTRBVE
METAR KBVE 210251Z AUTO 11004KT 10SM CLR 13/09 A3026 RMK AO2 SLP247
T01330094 51008





000
SAUS44 KLIX 210152
MTRBVE
METAR KBVE 210151Z AUTO 11005KT 10SM CLR 14/09 A3026 RMK AO2 SLP246
T01390094





000
SAUS44 KLIX 210052
MTRBVE
METAR KBVE 210051Z AUTO 10004KT 10SM CLR 14/10 A3026 RMK AO2 SLP245
T01390100





000
SAUS44 KLIX 202352
MTRBVE
METAR KBVE 202351Z AUTO 00000KT 10SM CLR 14/09 A3024 RMK AO2 SLP240
T01440089 10194 20139 53006





000
SAUS44 KLIX 202252
MTRBVE
METAR KBVE 202251Z AUTO 12003KT 10SM CLR 17/08 A3023 RMK AO2 SLP236
T01670078





000
SAUS44 KLIX 202152
MTRBVE
METAR KBVE 202151Z AUTO 10005KT 10SM CLR 18/07 A3023 RMK AO2 SLP236
T01830072





000
SAUS44 KLIX 202052
MTRBVE
METAR KBVE 202051Z AUTO 10006KT 10SM CLR 18/07 A3022 RMK AO2 SLP234
T01830072 56021





000
SAUS44 KLIX 201952
MTRBVE
METAR KBVE 201951Z AUTO 09006KT 10SM CLR 19/07 A3023 RMK AO2 SLP237
T01890072





    US Dept of Commerce
    National Oceanic and Atmospheric Administration
    National Weather Service
    1325 East West Highway
    Silver Spring, MD 20910
    Page Author: NWS Internet Services Team
Disclaimer
Information Quality
Credits
Glossary
Privacy Policy
Freedom of Information Act (FOIA)
About Us
Career Opportunities